createdAt,value
2022-08-20T00:00:06.306Z,26.21
2022-08-20T00:00:38.287Z,26.19
2022-08-20T00:01:09.731Z,26.15
2022-08-20T00:01:41.112Z,26.12
2022-08-20T00:02:12.720Z,26.16
2022-08-20T00:02:49.183Z,26.23
2022-08-20T00:03:23.310Z,26.24
2022-08-20T00:03:57.085Z,26.26
2022-08-20T00:04:33.068Z,26.22
2022-08-20T00:05:04.570Z,26.19
2022-08-20T00:05:40.116Z,26.17
2022-08-20T00:06:12.996Z,26.13
2022-08-20T00:06:44.334Z,26.11
2022-08-20T00:07:15.712Z,26.13
2022-08-20T00:07:47.093Z,26.19
2022-08-20T00:08:18.713Z,26.10
2022-08-20T00:08:50.108Z,26.10
2022-08-20T00:09:21.520Z,26.15
2022-08-20T00:09:52.853Z,26.12
2022-08-20T00:10:24.376Z,26.16
2022-08-20T00:10:55.921Z,26.09
2022-08-20T00:11:27.452Z,26.12
2022-08-20T00:12:00.454Z,26.03
2022-08-20T00:12:31.877Z,26.09
2022-08-20T00:13:03.829Z,26.13
2022-08-20T00:13:37.815Z,26.18
2022-08-20T00:14:09.398Z,26.18
2022-08-20T00:14:40.903Z,26.17
2022-08-20T00:15:14.747Z,26.11
2022-08-20T00:15:46.427Z,26.21
2022-08-20T00:16:18.249Z,26.19
2022-08-20T00:16:49.631Z,26.16
2022-08-20T00:17:21.003Z,26.21
2022-08-20T00:17:52.392Z,26.20
2022-08-20T00:18:23.772Z,26.20
2022-08-20T00:18:55.222Z,26.19
2022-08-20T00:19:27.094Z,26.16
2022-08-20T00:19:58.585Z,26.18
2022-08-20T00:20:31.241Z,26.15
2022-08-20T00:21:03.588Z,26.13
2022-08-20T00:21:35.173Z,26.16
2022-08-20T00:22:06.602Z,26.15
2022-08-20T00:22:38.088Z,26.18
2022-08-20T00:23:10.574Z,26.14
2022-08-20T00:23:43.138Z,26.12
2022-08-20T00:24:14.529Z,26.10
2022-08-20T00:24:45.928Z,26.12
2022-08-20T00:25:17.346Z,26.12
2022-08-20T00:25:48.709Z,26.15
2022-08-20T00:26:20.232Z,26.15
2022-08-20T00:26:52.797Z,26.16
2022-08-20T00:27:24.326Z,26.10
2022-08-20T00:27:56.306Z,26.11
2022-08-20T00:28:27.771Z,26.11
2022-08-20T00:28:59.148Z,26.10
2022-08-20T00:29:30.515Z,26.10
2022-08-20T00:30:02.200Z,26.11
2022-08-20T00:30:33.947Z,26.07
2022-08-20T00:31:06.004Z,26.07
2022-08-20T00:31:37.532Z,26.05
2022-08-20T00:32:09.540Z,26.04
2022-08-20T00:32:47.880Z,26.05
2022-08-20T00:33:19.990Z,26.06
2022-08-20T00:33:51.450Z,26.06
2022-08-20T00:34:22.851Z,26.08
2022-08-20T00:34:54.205Z,26.09
2022-08-20T00:35:26.855Z,26.12
2022-08-20T00:35:58.209Z,26.10
2022-08-20T00:36:32.609Z,26.08
2022-08-20T00:37:04.528Z,26.12
2022-08-20T00:37:35.953Z,26.10
2022-08-20T00:38:07.279Z,26.10
2022-08-20T00:38:38.969Z,26.10
2022-08-20T00:39:10.363Z,26.12
2022-08-20T00:39:41.818Z,26.12
2022-08-20T00:40:22.876Z,26.10
2022-08-20T00:40:55.484Z,26.12
2022-08-20T00:41:27.024Z,26.09
2022-08-20T00:41:58.455Z,26.10
2022-08-20T00:42:29.812Z,26.11
2022-08-20T00:43:01.298Z,26.07
2022-08-20T00:43:34.397Z,26.06
2022-08-20T00:44:13.084Z,26.08
2022-08-20T00:44:45.699Z,26.06
2022-08-20T00:45:17.192Z,26.08
2022-08-20T00:45:48.580Z,26.05
2022-08-20T00:46:28.120Z,26.05
2022-08-20T00:47:03.574Z,26.07
2022-08-20T00:47:34.970Z,26.07
2022-08-20T00:48:06.407Z,26.07
2022-08-20T00:48:38.393Z,26.08
2022-08-20T00:49:11.786Z,26.10
2022-08-20T00:49:43.156Z,26.11
2022-08-20T00:50:15.775Z,26.11
2022-08-20T00:50:48.732Z,26.13
2022-08-20T00:51:29.989Z,26.10
2022-08-20T00:52:14.627Z,26.11
2022-08-20T00:52:49.783Z,26.11
2022-08-20T00:53:21.602Z,26.11
2022-08-20T00:53:56.270Z,26.13
2022-08-20T00:54:46.826Z,26.13
2022-08-20T00:55:18.313Z,26.12
2022-08-20T00:55:49.755Z,26.13
2022-08-20T00:56:21.170Z,26.13
2022-08-20T00:56:54.846Z,26.12
2022-08-20T00:57:29.150Z,26.12
2022-08-20T00:58:20.479Z,26.10
2022-08-20T00:58:51.835Z,26.13
2022-08-20T00:59:28.676Z,26.11
2022-08-20T01:00:00.165Z,26.10
2022-08-20T01:00:32.707Z,26.12
2022-08-20T01:01:04.201Z,26.10
2022-08-20T01:01:54.772Z,26.10
2022-08-20T01:02:27.292Z,26.09
2022-08-20T01:02:58.762Z,26.08
2022-08-20T01:03:30.140Z,26.07
2022-08-20T01:04:01.547Z,26.08
2022-08-20T01:04:33.480Z,26.08
2022-08-20T01:05:05.460Z,26.08
2022-08-20T01:05:37.679Z,26.07
2022-08-20T01:06:09.095Z,26.10
2022-08-20T01:06:40.493Z,26.09
2022-08-20T01:07:11.821Z,26.09
2022-08-20T01:07:43.191Z,26.07
2022-08-20T01:08:15.043Z,26.05
2022-08-20T01:08:46.552Z,26.06
2022-08-20T01:09:17.898Z,26.06
2022-08-20T01:10:13.719Z,26.07
2022-08-20T01:10:50.699Z,26.06
2022-08-20T01:11:22.064Z,26.03
2022-08-20T01:11:53.864Z,26.03
2022-08-20T01:12:25.321Z,26.04
2022-08-20T01:12:59.398Z,26.06
2022-08-20T01:13:31.053Z,26.04
2022-08-20T01:14:03.389Z,26.04
2022-08-20T01:14:34.907Z,26.04
2022-08-20T01:15:06.542Z,26.04
2022-08-20T01:15:42.944Z,26.04
2022-08-20T01:16:25.071Z,26.05
2022-08-20T01:17:00.426Z,26.03
2022-08-20T01:17:32.842Z,26.04
2022-08-20T01:18:04.325Z,26.01
2022-08-20T01:18:35.660Z,26.03
2022-08-20T01:19:07.243Z,26.00
2022-08-20T01:20:04.407Z,26.00
2022-08-20T01:20:39.818Z,25.99
2022-08-20T01:21:11.207Z,25.99
2022-08-20T01:21:45.794Z,25.99
2022-08-20T01:22:28.877Z,25.98
2022-08-20T01:23:15.578Z,25.98
2022-08-20T01:24:05.499Z,26.02
2022-08-20T01:24:37.084Z,26.00
2022-08-20T01:25:12.740Z,26.00
2022-08-20T01:25:48.788Z,25.99
2022-08-20T01:26:24.764Z,25.98
2022-08-20T01:26:56.110Z,25.96
2022-08-20T01:27:27.513Z,25.94
2022-08-20T01:28:02.360Z,25.93
2022-08-20T01:28:35.360Z,25.90
2022-08-20T01:29:06.785Z,25.92
2022-08-20T01:29:38.627Z,25.90
2022-08-20T01:30:10.165Z,25.92
2022-08-20T01:30:41.543Z,25.94
2022-08-20T01:31:19.957Z,25.92
2022-08-20T01:31:51.534Z,25.92
2022-08-20T01:32:22.870Z,25.94
2022-08-20T01:32:54.368Z,25.92
2022-08-20T01:33:25.806Z,25.90
2022-08-20T01:33:57.766Z,25.92
2022-08-20T01:34:29.289Z,25.89
2022-08-20T01:35:00.672Z,25.92
2022-08-20T01:35:34.915Z,25.89
2022-08-20T01:36:06.482Z,25.88
2022-08-20T01:36:46.140Z,25.89
2022-08-20T01:37:17.935Z,25.83
2022-08-20T01:37:49.432Z,25.85
2022-08-20T01:38:20.857Z,25.87
2022-08-20T01:38:54.225Z,25.81
2022-08-20T01:39:27.319Z,25.84
2022-08-20T01:39:58.750Z,25.82
2022-08-20T01:40:48.832Z,25.81
2022-08-20T01:41:28.445Z,25.83
2022-08-20T01:42:20.683Z,25.83
2022-08-20T01:42:59.003Z,25.85
2022-08-20T01:43:31.278Z,25.85
2022-08-20T01:44:09.199Z,25.88
2022-08-20T01:44:48.144Z,25.87
2022-08-20T01:45:20.753Z,25.88
2022-08-20T01:45:58.217Z,25.89
2022-08-20T01:46:31.751Z,25.89
2022-08-20T01:47:27.331Z,25.89
2022-08-20T01:47:59.359Z,25.90
2022-08-20T01:48:30.953Z,25.90
2022-08-20T01:49:07.041Z,25.89
2022-08-20T01:49:46.201Z,25.91
2022-08-20T01:50:17.923Z,25.88
2022-08-20T01:50:53.888Z,25.90
2022-08-20T01:51:27.100Z,25.89
2022-08-20T01:51:59.437Z,25.87
2022-08-20T01:52:38.988Z,25.88
2022-08-20T01:53:21.521Z,25.88
2022-08-20T01:53:53.341Z,25.89
2022-08-20T01:54:24.815Z,25.85
2022-08-20T01:54:56.392Z,25.87
2022-08-20T01:55:28.132Z,25.86
2022-08-20T01:56:00.557Z,25.87
2022-08-20T01:56:32.005Z,25.83
2022-08-20T01:57:04.772Z,25.84
2022-08-20T01:57:36.522Z,25.84
2022-08-20T01:58:07.882Z,25.81
2022-08-20T01:58:39.587Z,25.84
2022-08-20T01:59:10.927Z,25.84
2022-08-20T01:59:42.397Z,25.83
2022-08-20T02:00:20.037Z,25.85
2022-08-20T02:00:51.770Z,25.82
2022-08-20T02:01:24.613Z,25.84
2022-08-20T02:01:56.127Z,25.86
2022-08-20T02:02:27.675Z,25.85
2022-08-20T02:02:59.059Z,25.87
2022-08-20T02:03:34.794Z,25.88
2022-08-20T02:04:09.448Z,25.88
2022-08-20T02:04:46.840Z,25.87
2022-08-20T02:05:18.498Z,25.88
2022-08-20T02:05:49.856Z,25.87
2022-08-20T02:06:21.541Z,25.89
2022-08-20T02:06:56.109Z,25.88
2022-08-20T02:07:28.849Z,25.87
2022-08-20T02:08:00.354Z,25.87
2022-08-20T02:08:31.870Z,25.90
2022-08-20T02:09:03.916Z,25.90
2022-08-20T02:09:36.016Z,25.91
2022-08-20T02:10:08.145Z,25.90
2022-08-20T02:10:39.527Z,25.91
2022-08-20T02:11:10.917Z,25.88
2022-08-20T02:11:42.273Z,25.88
2022-08-20T02:12:13.715Z,25.89
2022-08-20T02:12:45.105Z,25.92
2022-08-20T02:13:16.478Z,25.91
2022-08-20T02:13:47.877Z,25.91
2022-08-20T02:14:19.341Z,25.90
2022-08-20T02:14:51.249Z,25.90
2022-08-20T02:15:34.979Z,25.91
2022-08-20T02:16:08.950Z,25.90
2022-08-20T02:16:41.831Z,25.89
2022-08-20T02:17:13.664Z,25.88
2022-08-20T02:17:45.065Z,25.88
2022-08-20T02:18:16.405Z,25.89
2022-08-20T02:18:48.529Z,25.86
2022-08-20T02:19:22.007Z,25.84
2022-08-20T02:20:12.223Z,25.87
2022-08-20T02:20:43.616Z,25.84
2022-08-20T02:21:15.184Z,25.84
2022-08-20T02:21:51.303Z,25.85
2022-08-20T02:22:31.937Z,25.86
2022-08-20T02:23:03.430Z,25.85
2022-08-20T02:23:34.767Z,25.85
2022-08-20T02:24:06.457Z,25.87
2022-08-20T02:24:40.259Z,25.84
2022-08-20T02:25:11.643Z,25.83
2022-08-20T02:25:43.788Z,25.86
2022-08-20T02:26:15.287Z,25.86
2022-08-20T02:26:47.031Z,25.85
2022-08-20T02:27:18.463Z,25.85
2022-08-20T02:27:50.201Z,25.84
2022-08-20T02:28:21.637Z,25.83
2022-08-20T02:28:53.024Z,25.84
2022-08-20T02:29:24.423Z,25.83
2022-08-20T02:29:55.845Z,25.84
2022-08-20T02:30:31.673Z,25.85
2022-08-20T02:31:03.030Z,25.84
2022-08-20T02:31:35.130Z,25.83
2022-08-20T02:32:32.124Z,25.83
2022-08-20T02:32:58.180Z,25.84
2022-08-20T02:33:29.607Z,25.86
2022-08-20T02:34:22.578Z,25.86
2022-08-20T02:34:52.363Z,25.86
2022-08-20T02:35:23.987Z,25.84
2022-08-20T02:35:55.392Z,25.85
2022-08-20T02:36:26.853Z,25.84
2022-08-20T02:36:58.692Z,25.83
2022-08-20T02:37:30.116Z,25.81
2022-08-20T02:38:01.603Z,25.81
2022-08-20T02:38:32.970Z,25.83
2022-08-20T02:39:07.857Z,25.83
2022-08-20T02:39:39.320Z,25.84
2022-08-20T02:40:12.191Z,25.82
2022-08-20T02:40:43.976Z,25.81
2022-08-20T02:41:15.335Z,25.83
2022-08-20T02:41:46.891Z,25.84
2022-08-20T02:42:18.309Z,25.81
2022-08-20T02:42:49.876Z,25.82
2022-08-20T02:43:21.326Z,25.83
2022-08-20T02:43:52.652Z,25.82
2022-08-20T02:44:24.040Z,25.84
2022-08-20T02:44:55.467Z,25.84
2022-08-20T02:45:26.937Z,25.81
2022-08-20T02:45:58.723Z,25.80
2022-08-20T02:46:30.197Z,25.81
2022-08-20T02:47:02.513Z,25.84
2022-08-20T02:47:33.939Z,25.82
2022-08-20T02:48:05.387Z,25.83
2022-08-20T02:48:36.733Z,25.84
2022-08-20T02:49:08.201Z,25.84
2022-08-20T02:49:39.735Z,25.85
2022-08-20T02:50:11.601Z,25.84
2022-08-20T02:50:43.069Z,25.86
2022-08-20T02:51:14.475Z,25.86
2022-08-20T02:51:45.924Z,25.86
2022-08-20T02:52:17.274Z,25.84
2022-08-20T02:52:51.632Z,25.83
2022-08-20T02:53:24.032Z,25.84
2022-08-20T02:53:55.410Z,25.84
2022-08-20T02:54:26.847Z,25.85
2022-08-20T02:54:58.243Z,25.85
2022-08-20T02:55:29.600Z,25.87
2022-08-20T02:56:00.950Z,25.86
2022-08-20T02:56:32.362Z,25.87
2022-08-20T02:57:03.851Z,25.84
2022-08-20T02:57:35.226Z,25.82
2022-08-20T02:58:06.592Z,25.85
2022-08-20T02:58:38.191Z,25.85
2022-08-20T02:59:09.559Z,25.84
2022-08-20T02:59:43.908Z,25.83
2022-08-20T03:00:16.731Z,25.85
2022-08-20T03:00:48.325Z,25.84
2022-08-20T03:01:19.896Z,25.83
2022-08-20T03:01:59.282Z,25.84
2022-08-20T03:02:32.510Z,25.85
2022-08-20T03:03:03.902Z,25.85
2022-08-20T03:03:35.395Z,25.84
2022-08-20T03:04:06.840Z,25.83
2022-08-20T03:04:38.201Z,25.83
2022-08-20T03:05:09.773Z,25.83
2022-08-20T03:05:41.740Z,25.81
2022-08-20T03:06:13.242Z,25.82
2022-08-20T03:06:44.590Z,25.83
2022-08-20T03:07:16.126Z,25.77
2022-08-20T03:07:48.525Z,25.82
2022-08-20T03:08:19.857Z,25.79
2022-08-20T03:08:51.282Z,25.79
2022-08-20T03:09:22.833Z,25.77
2022-08-20T03:09:54.286Z,25.78
2022-08-20T03:10:30.866Z,25.79
2022-08-20T03:11:02.185Z,25.79
2022-08-20T03:11:33.583Z,25.81
2022-08-20T03:12:07.065Z,25.81
2022-08-20T03:12:38.634Z,25.77
2022-08-20T03:13:10.247Z,25.79
2022-08-20T03:13:41.646Z,25.77
2022-08-20T03:14:13.000Z,25.77
2022-08-20T03:14:44.333Z,25.80
2022-08-20T03:15:17.746Z,25.82
2022-08-20T03:15:57.931Z,25.81
2022-08-20T03:16:29.929Z,25.81
2022-08-20T03:17:01.328Z,25.76
2022-08-20T03:17:32.716Z,25.80
2022-08-20T03:18:04.182Z,25.79
2022-08-20T03:18:37.960Z,25.79
2022-08-20T03:19:09.319Z,25.77
2022-08-20T03:19:40.681Z,25.78
2022-08-20T03:20:12.142Z,25.79
2022-08-20T03:20:43.520Z,25.77
2022-08-20T03:21:17.436Z,25.79
2022-08-20T03:21:48.945Z,25.79
2022-08-20T03:22:20.466Z,25.81
2022-08-20T03:22:52.059Z,25.80
2022-08-20T03:23:23.594Z,25.76
2022-08-20T03:23:54.956Z,25.80
2022-08-20T03:24:26.313Z,25.77
2022-08-20T03:24:57.668Z,25.78
2022-08-20T03:25:29.004Z,25.78
2022-08-20T03:26:00.393Z,25.75
2022-08-20T03:26:31.956Z,25.77
2022-08-20T03:27:03.374Z,25.78
2022-08-20T03:27:36.380Z,25.75
2022-08-20T03:28:08.053Z,25.79
2022-08-20T03:28:39.714Z,25.80
2022-08-20T03:29:11.239Z,25.79
2022-08-20T03:29:42.665Z,25.77
2022-08-20T03:30:14.197Z,25.78
2022-08-20T03:30:45.517Z,25.79
2022-08-20T03:31:16.939Z,25.74
2022-08-20T03:31:48.267Z,25.77
2022-08-20T03:32:19.669Z,25.79
2022-08-20T03:32:51.109Z,25.77
2022-08-20T03:33:22.542Z,25.75
2022-08-20T03:33:53.988Z,25.77
2022-08-20T03:34:25.320Z,25.77
2022-08-20T03:34:56.692Z,25.76
2022-08-20T03:35:28.534Z,25.77
2022-08-20T03:36:00.059Z,25.79
2022-08-20T03:36:31.578Z,25.79
2022-08-20T03:37:02.918Z,25.77
2022-08-20T03:37:34.471Z,25.79
2022-08-20T03:38:07.192Z,25.79
2022-08-20T03:38:39.799Z,25.79
2022-08-20T03:39:11.199Z,25.77
2022-08-20T03:39:42.641Z,25.79
2022-08-20T03:40:15.685Z,25.77
2022-08-20T03:40:47.730Z,25.78
2022-08-20T03:41:19.159Z,25.79
2022-08-20T03:41:50.514Z,25.78
2022-08-20T03:42:21.895Z,25.77
2022-08-20T03:42:53.356Z,25.78
2022-08-20T03:43:24.739Z,25.76
2022-08-20T03:43:56.161Z,25.77
2022-08-20T03:44:27.511Z,25.79
2022-08-20T03:44:59.446Z,25.80
2022-08-20T03:45:30.913Z,25.77
2022-08-20T03:46:02.274Z,25.77
2022-08-20T03:46:34.088Z,25.79
2022-08-20T03:47:05.786Z,25.76
2022-08-20T03:47:37.105Z,25.77
2022-08-20T03:48:08.625Z,25.79
2022-08-20T03:48:39.956Z,25.78
2022-08-20T03:49:11.343Z,25.79
2022-08-20T03:49:42.841Z,25.80
2022-08-20T03:50:14.874Z,25.80
2022-08-20T03:50:54.619Z,25.80
2022-08-20T03:51:25.987Z,25.80
2022-08-20T03:51:57.927Z,25.79
2022-08-20T03:52:29.833Z,25.79
2022-08-20T03:53:01.247Z,25.77
2022-08-20T03:53:32.607Z,25.77
2022-08-20T03:54:04.005Z,25.75
2022-08-20T03:54:35.533Z,25.75
2022-08-20T03:55:07.212Z,25.76
2022-08-20T03:55:38.621Z,25.76
2022-08-20T03:56:09.926Z,25.76
2022-08-20T03:56:41.350Z,25.77
2022-08-20T03:57:13.166Z,25.76
2022-08-20T03:57:48.101Z,25.71
2022-08-20T03:58:19.582Z,25.73
2022-08-20T03:58:50.985Z,25.77
2022-08-20T03:59:22.346Z,25.76
2022-08-20T03:59:58.043Z,25.75
2022-08-20T04:00:34.228Z,25.77
2022-08-20T04:01:05.999Z,25.79
2022-08-20T04:01:45.548Z,25.78
2022-08-20T04:02:17.942Z,25.72
2022-08-20T04:02:49.308Z,25.76
2022-08-20T04:03:20.766Z,25.74
2022-08-20T04:03:55.079Z,25.72
2022-08-20T04:04:26.703Z,25.72
2022-08-20T04:04:58.082Z,25.71
2022-08-20T04:05:29.959Z,25.69
2022-08-20T04:06:01.394Z,25.70
2022-08-20T04:06:32.821Z,25.73
2022-08-20T04:07:14.272Z,25.74
2022-08-20T04:07:45.634Z,25.75
2022-08-20T04:08:21.026Z,25.75
2022-08-20T04:08:52.378Z,25.77
2022-08-20T04:09:23.896Z,25.75
2022-08-20T04:09:55.552Z,25.77
2022-08-20T04:10:26.990Z,25.76
2022-08-20T04:10:58.530Z,25.76
2022-08-20T04:11:29.932Z,25.75
2022-08-20T04:12:01.312Z,25.76
2022-08-20T04:12:32.685Z,25.76
2022-08-20T04:13:06.476Z,25.75
2022-08-20T04:13:43.421Z,25.77
2022-08-20T04:14:18.481Z,25.76
2022-08-20T04:14:51.193Z,25.76
2022-08-20T04:15:22.531Z,25.76
2022-08-20T04:15:54.137Z,25.76
2022-08-20T04:16:25.526Z,25.77
2022-08-20T04:16:56.839Z,25.75
2022-08-20T04:17:28.227Z,25.75
2022-08-20T04:17:59.637Z,25.76
2022-08-20T04:18:31.034Z,25.73
2022-08-20T04:19:02.881Z,25.74
2022-08-20T04:19:34.399Z,25.75
2022-08-20T04:20:06.059Z,25.74
2022-08-20T04:20:38.276Z,25.74
2022-08-20T04:21:09.615Z,25.74
2022-08-20T04:21:41.030Z,25.74
2022-08-20T04:22:12.408Z,25.74
2022-08-20T04:22:43.780Z,25.73
2022-08-20T04:23:30.332Z,25.75
2022-08-20T04:24:02.168Z,25.75
2022-08-20T04:24:34.008Z,25.75
2022-08-20T04:25:05.503Z,25.74
2022-08-20T04:25:39.347Z,25.71
2022-08-20T04:26:14.606Z,25.73
2022-08-20T04:26:46.007Z,25.73
2022-08-20T04:27:17.362Z,25.74
2022-08-20T04:27:48.739Z,25.77
2022-08-20T04:28:20.594Z,25.76
2022-08-20T04:28:51.966Z,25.75
2022-08-20T04:29:23.382Z,25.76
2022-08-20T04:29:56.414Z,25.76
2022-08-20T04:30:27.919Z,25.74
2022-08-20T04:31:00.023Z,25.76
2022-08-20T04:31:31.426Z,25.75
2022-08-20T04:32:05.824Z,25.76
2022-08-20T04:32:38.019Z,25.75
2022-08-20T04:33:09.853Z,25.74
2022-08-20T04:33:41.200Z,25.73
2022-08-20T04:34:12.558Z,25.74
2022-08-20T04:34:43.988Z,25.75
2022-08-20T04:35:18.791Z,25.74
2022-08-20T04:35:50.126Z,25.74
2022-08-20T04:36:21.466Z,25.73
2022-08-20T04:36:52.822Z,25.74
2022-08-20T04:37:24.183Z,25.76
2022-08-20T04:38:02.323Z,25.73
2022-08-20T04:38:50.428Z,25.74
2022-08-20T04:39:22.394Z,25.76
2022-08-20T04:39:53.870Z,25.76
2022-08-20T04:40:25.389Z,25.78
2022-08-20T04:40:56.759Z,25.77
2022-08-20T04:41:28.131Z,25.76
2022-08-20T04:41:59.539Z,25.73
2022-08-20T04:42:30.930Z,25.74
2022-08-20T04:43:02.726Z,25.75
2022-08-20T04:43:34.667Z,25.74
2022-08-20T04:44:06.068Z,25.73
2022-08-20T04:44:37.495Z,25.73
2022-08-20T04:45:09.497Z,25.73
2022-08-20T04:45:40.857Z,25.71
2022-08-20T04:46:12.211Z,25.70
2022-08-20T04:46:43.570Z,25.70
2022-08-20T04:47:18.867Z,25.67
2022-08-20T04:47:56.933Z,25.67
2022-08-20T04:48:28.666Z,25.65
2022-08-20T04:49:00.578Z,25.65
2022-08-20T04:49:32.027Z,25.66
2022-08-20T04:50:03.566Z,25.60
2022-08-20T04:50:35.479Z,25.60
2022-08-20T04:51:07.337Z,25.62
2022-08-20T04:51:39.782Z,25.61
2022-08-20T04:52:11.201Z,25.65
2022-08-20T04:52:42.623Z,25.66
2022-08-20T04:53:14.478Z,25.67
2022-08-20T04:53:51.653Z,25.68
2022-08-20T04:54:23.794Z,25.70
2022-08-20T04:54:55.165Z,25.68
2022-08-20T04:55:26.550Z,25.70
2022-08-20T04:55:58.608Z,25.69
2022-08-20T04:56:31.241Z,25.71
2022-08-20T04:57:02.620Z,25.67
2022-08-20T04:57:33.995Z,25.68
2022-08-20T04:58:05.846Z,25.69
2022-08-20T04:58:38.144Z,25.68
2022-08-20T04:59:09.526Z,25.68
2022-08-20T04:59:40.900Z,25.68
2022-08-20T05:00:14.682Z,25.70
2022-08-20T05:00:49.425Z,25.69
2022-08-20T05:01:20.887Z,25.68
2022-08-20T05:01:52.237Z,25.68
2022-08-20T05:02:23.602Z,25.69
2022-08-20T05:02:54.982Z,25.69
2022-08-20T05:03:26.566Z,25.69
2022-08-20T05:03:57.975Z,25.69
2022-08-20T05:04:29.364Z,25.67
2022-08-20T05:05:00.726Z,25.67
2022-08-20T05:05:32.095Z,25.69
2022-08-20T05:06:03.860Z,25.69
2022-08-20T05:06:35.217Z,25.70
2022-08-20T05:07:06.654Z,25.70
2022-08-20T05:07:38.969Z,25.69
2022-08-20T05:08:19.889Z,25.69
2022-08-20T05:08:52.260Z,25.69
2022-08-20T05:09:23.620Z,25.70
2022-08-20T05:09:54.983Z,25.69
2022-08-20T05:10:26.327Z,25.70
2022-08-20T05:11:16.288Z,25.70
2022-08-20T05:11:49.147Z,25.67
2022-08-20T05:12:20.585Z,25.69
2022-08-20T05:12:56.536Z,25.71
2022-08-20T05:13:28.638Z,25.71
2022-08-20T05:14:00.027Z,25.71
2022-08-20T05:14:31.385Z,25.71
2022-08-20T05:15:03.006Z,25.70
2022-08-20T05:15:34.546Z,25.70
2022-08-20T05:16:06.025Z,25.70
2022-08-20T05:16:38.098Z,25.67
2022-08-20T05:17:09.596Z,25.69
2022-08-20T05:17:41.112Z,25.69
2022-08-20T05:18:12.536Z,25.70
2022-08-20T05:18:43.924Z,25.69
2022-08-20T05:19:15.453Z,25.69
2022-08-20T05:19:46.807Z,25.70
2022-08-20T05:20:18.205Z,25.68
2022-08-20T05:20:49.571Z,25.72
2022-08-20T05:21:20.970Z,25.71
2022-08-20T05:21:52.381Z,25.70
2022-08-20T05:22:23.700Z,25.68
2022-08-20T05:22:55.028Z,25.70
2022-08-20T05:23:26.427Z,25.70
2022-08-20T05:23:57.820Z,25.69
2022-08-20T05:24:29.401Z,25.70
2022-08-20T05:25:00.956Z,25.70
2022-08-20T05:25:32.294Z,25.70
2022-08-20T05:26:03.659Z,25.70
2022-08-20T05:26:35.370Z,25.70
2022-08-20T05:27:06.707Z,25.72
2022-08-20T05:27:38.054Z,25.72
2022-08-20T05:28:16.879Z,25.72
2022-08-20T05:28:57.737Z,25.70
2022-08-20T05:29:30.641Z,25.71
2022-08-20T05:30:04.883Z,25.68
2022-08-20T05:30:36.867Z,25.67
2022-08-20T05:31:08.730Z,25.71
2022-08-20T05:31:40.057Z,25.69
2022-08-20T05:32:11.391Z,25.68
2022-08-20T05:32:44.651Z,25.69
2022-08-20T05:33:16.589Z,25.67
2022-08-20T05:33:47.966Z,25.67
2022-08-20T05:34:19.313Z,25.69
2022-08-20T05:34:50.648Z,25.70
2022-08-20T05:35:22.010Z,25.71
2022-08-20T05:35:53.377Z,25.70
2022-08-20T05:36:24.719Z,25.70
2022-08-20T05:36:56.090Z,25.71
2022-08-20T05:37:27.696Z,25.69
2022-08-20T05:38:03.571Z,25.68
2022-08-20T05:38:35.557Z,25.68
2022-08-20T05:39:07.005Z,25.70
2022-08-20T05:39:38.624Z,25.72
2022-08-20T05:40:10.953Z,25.70
2022-08-20T05:40:42.370Z,25.70
2022-08-20T05:41:13.754Z,25.69
2022-08-20T05:41:59.888Z,25.71
2022-08-20T05:42:31.290Z,25.69
2022-08-20T05:43:02.709Z,25.70
2022-08-20T05:43:34.304Z,25.70
2022-08-20T05:44:06.246Z,25.71
2022-08-20T05:44:38.037Z,25.70
2022-08-20T05:45:11.271Z,25.71
2022-08-20T05:45:42.898Z,25.72
2022-08-20T05:46:14.236Z,25.70
2022-08-20T05:46:45.985Z,25.71
2022-08-20T05:47:17.377Z,25.68
2022-08-20T05:47:53.399Z,25.69
2022-08-20T05:48:28.093Z,25.70
2022-08-20T05:49:00.135Z,25.68
2022-08-20T05:49:31.928Z,25.68
2022-08-20T05:50:04.366Z,25.70
2022-08-20T05:50:35.783Z,25.68
2022-08-20T05:51:07.155Z,25.71
2022-08-20T05:51:38.509Z,25.69
2022-08-20T05:52:09.882Z,25.62
2022-08-20T05:52:41.335Z,25.66
2022-08-20T05:53:12.688Z,25.69
2022-08-20T05:53:44.038Z,25.68
2022-08-20T05:54:15.471Z,25.68
2022-08-20T05:54:46.865Z,25.71
2022-08-20T05:55:18.255Z,25.70
2022-08-20T05:55:49.599Z,25.70
2022-08-20T05:56:21.642Z,25.70
2022-08-20T05:56:58.372Z,25.68
2022-08-20T05:57:29.731Z,25.69
2022-08-20T05:58:01.473Z,25.70
2022-08-20T05:58:32.867Z,25.70
2022-08-20T05:59:04.457Z,25.70
2022-08-20T05:59:35.858Z,25.69
2022-08-20T06:00:08.421Z,25.68
2022-08-20T06:00:39.743Z,25.67
2022-08-20T06:01:11.169Z,25.69
2022-08-20T06:01:42.688Z,25.68
2022-08-20T06:02:14.154Z,25.68
2022-08-20T06:02:45.530Z,25.71
2022-08-20T06:03:16.882Z,25.73
2022-08-20T06:03:48.299Z,25.72
2022-08-20T06:04:19.692Z,25.73
2022-08-20T06:04:56.305Z,25.72
2022-08-20T06:05:27.822Z,25.71
2022-08-20T06:05:59.139Z,25.69
2022-08-20T06:06:39.163Z,25.72
2022-08-20T06:07:17.825Z,25.69
2022-08-20T06:07:49.261Z,25.68
2022-08-20T06:08:20.657Z,25.70
2022-08-20T06:08:52.030Z,25.73
2022-08-20T06:09:30.906Z,25.72
2022-08-20T06:10:03.757Z,25.73
2022-08-20T06:10:35.219Z,25.72
2022-08-20T06:11:06.685Z,25.69
2022-08-20T06:11:38.093Z,25.70
2022-08-20T06:12:09.449Z,25.68
2022-08-20T06:12:40.976Z,25.71
2022-08-20T06:13:13.997Z,25.73
2022-08-20T06:13:45.571Z,25.71
2022-08-20T06:14:17.030Z,25.70
2022-08-20T06:14:48.411Z,25.70
2022-08-20T06:15:19.901Z,25.68
2022-08-20T06:15:51.265Z,25.66
2022-08-20T06:16:22.593Z,25.63
2022-08-20T06:17:07.469Z,25.64
2022-08-20T06:17:39.347Z,25.70
2022-08-20T06:18:27.977Z,25.71
2022-08-20T06:19:02.118Z,25.74
2022-08-20T06:19:34.680Z,25.72
2022-08-20T06:20:06.983Z,25.71
2022-08-20T06:20:38.672Z,25.74
2022-08-20T06:21:10.096Z,25.73
2022-08-20T06:21:41.456Z,25.72
2022-08-20T06:22:19.562Z,25.71
2022-08-20T06:22:57.183Z,25.67
2022-08-20T06:23:56.513Z,25.70
2022-08-20T06:24:19.959Z,25.71
2022-08-20T06:24:51.485Z,25.73
2022-08-20T06:25:23.035Z,25.69
2022-08-20T06:25:54.433Z,25.70
2022-08-20T06:26:29.868Z,25.73
2022-08-20T06:27:03.034Z,25.73
2022-08-20T06:27:37.216Z,25.74
2022-08-20T06:28:08.578Z,25.74
2022-08-20T06:28:39.938Z,25.73
2022-08-20T06:29:11.294Z,25.71
2022-08-20T06:29:42.760Z,25.72
2022-08-20T06:30:14.443Z,25.73
2022-08-20T06:30:45.870Z,25.74
2022-08-20T06:31:17.188Z,25.73
2022-08-20T06:31:48.555Z,25.74
2022-08-20T06:32:31.656Z,25.75
2022-08-20T06:33:04.153Z,25.74
2022-08-20T06:33:35.544Z,25.74
2022-08-20T06:34:06.852Z,25.76
2022-08-20T06:34:38.187Z,25.76
2022-08-20T06:35:42.930Z,25.80
2022-08-20T06:36:14.232Z,25.76
2022-08-20T06:36:50.220Z,25.76
2022-08-20T06:37:22.748Z,25.79
2022-08-20T06:37:54.286Z,25.74
2022-08-20T06:38:25.597Z,25.73
2022-08-20T06:38:56.903Z,25.72
2022-08-20T06:39:28.214Z,25.73
2022-08-20T06:40:00.488Z,25.74
2022-08-20T06:40:31.817Z,25.69
2022-08-20T06:41:03.216Z,25.69
2022-08-20T06:41:37.166Z,25.71
2022-08-20T06:42:08.769Z,25.69
2022-08-20T06:42:41.640Z,25.69
2022-08-20T06:43:16.104Z,25.69
2022-08-20T06:43:47.661Z,25.68
2022-08-20T06:44:19.076Z,25.67
2022-08-20T06:44:50.572Z,25.67
2022-08-20T06:45:23.185Z,25.68
2022-08-20T06:45:54.629Z,25.68
2022-08-20T06:46:26.143Z,25.69
2022-08-20T06:47:00.295Z,25.69
2022-08-20T06:47:32.131Z,25.65
2022-08-20T06:48:08.899Z,25.68
2022-08-20T06:48:40.386Z,25.66
2022-08-20T06:49:12.341Z,25.67
2022-08-20T06:49:43.883Z,25.67
2022-08-20T06:50:19.284Z,25.68
2022-08-20T06:50:50.869Z,25.70
2022-08-20T06:51:22.390Z,25.65
2022-08-20T06:51:53.914Z,25.67
2022-08-20T06:52:45.218Z,25.68
2022-08-20T06:53:17.823Z,25.64
2022-08-20T06:53:49.280Z,25.63
2022-08-20T06:54:20.773Z,25.67
2022-08-20T06:55:00.111Z,25.65
2022-08-20T06:55:31.687Z,25.66
2022-08-20T06:56:03.389Z,25.68
2022-08-20T06:56:34.866Z,25.67
2022-08-20T06:57:06.420Z,25.67
2022-08-20T06:57:37.972Z,25.67
2022-08-20T06:58:15.628Z,25.67
2022-08-20T06:59:01.363Z,25.69
2022-08-20T06:59:32.916Z,25.68
2022-08-20T07:00:05.496Z,25.68
2022-08-20T07:00:37.437Z,25.68
2022-08-20T07:01:10.836Z,25.69
2022-08-20T07:01:42.830Z,25.70
2022-08-20T07:02:14.395Z,25.70
2022-08-20T07:02:45.892Z,25.71
2022-08-20T07:03:17.531Z,25.67
2022-08-20T07:03:55.323Z,25.66
2022-08-20T07:04:27.791Z,25.70